LIBD Airport Information

Runway Information
Runway 07 Length 8005 ft width 148 ft
Elevation 177 ft Threshold 0 ft Heading 69
Runway 25 Length 8005 ft Width 148 ft
Elevation 108 ft Threshold 0 ft Heading 249
Runway 12 Length 5512 ft width 164 ft
Elevation 108 ft Threshold 0 ft Heading 123
Runway 30 Length 5512 ft Width 164 ft
Elevation 108 ft Threshold 0 ft Heading 303
Airport Frequencies
Type APP Name APP Frequency 119.5 MHZ
Type TWR Name TWR Frequency 118.3 MHZ
Airport Navaids
Type VOR-DME Name Bari Frequency 116400 KHZ
Airport Weather Information & NOTAM
ADDS - METARS form results

(1817 UTC 18 July 2018)
 
METAR text: LIBD 181750Z 36006KT 330V030 CAVOK 27/18 Q1012
Conditions at: LIBD (BARI/PALESE MACC, IT) observed 1750 UTC 18 July 2018
Temperature: 27.0°C (81°F)
Dewpoint: 18.0°C (64°F) [RH = 58%]
Pressure (altimeter): 29.88 inches Hg (1012.0 mb)
Winds: from the N (360 degrees) at 7 MPH (6 knots; 3.1 m/s)
Visibility: 6 or more miles (10+ km)
Ceiling: ceiling and visibility are OK
Clouds: unknown
Weather: no significant weather observed at this time

METAR text: LIBD 181720Z 36009KT 330V030 CAVOK 27/17 Q1012
Conditions at: LIBD (BARI/PALESE MACC, IT) observed 1720 UTC 18 July 2018
Temperature: 27.0°C (81°F)
Dewpoint: 17.0°C (63°F) [RH = 54%]
Pressure (altimeter): 29.88 inches Hg (1012.0 mb)
Winds: from the N (360 degrees) at 10 MPH (9 knots; 4.7 m/s)
Visibility: 6 or more miles (10+ km)
Ceiling: ceiling and visibility are OK
Clouds: unknown
Weather: no significant weather observed at this time